Bombay Beach, California
Current Conditions -  °F | °C
As of 1:53 AM on Monday 22 Dec 2014 (Local Time) from KIPL Reporting Station
Clear Clear  
Wind Chill: 50°   Ceiling: Unl
Heat Index: 50°   Visibility: 8mi
Dew Point: 43°   Wind: 5mph
Humidity: 77%   Direction: 130°SE
Pressure: 30.02"   Gusts: NA
Location:  33.3324°N, 115.621°W
Report Text: KIPL 220953Z AUTO 13004KT 8SM CLR 10/06 A3002 RMK AO2 SLP164 T01000061
Loading
Personal Weather Stations






























Interactive Weather Map New forecast layout! Learn more

10-Day Weather Forecast

Advertisements
Track Severe Weather on mobile